sensor_id;sensor_type;location;lat;lon;timestamp;P1;durP1;ratioP1;P2;durP2;ratioP2
17488;SDS011;8861;52.644;4.734;2023-05-07T00:00:45;26.73;;;21.80;;
17488;SDS011;8861;52.644;4.734;2023-05-07T00:03:11;27.80;;;22.17;;
17488;SDS011;8861;52.644;4.734;2023-05-07T00:05:38;28.63;;;23.43;;
17488;SDS011;8861;52.644;4.734;2023-05-07T00:08:06;28.07;;;22.87;;
17488;SDS011;8861;52.644;4.734;2023-05-07T00:10:33;27.60;;;22.27;;
17488;SDS011;8861;52.644;4.734;2023-05-07T00:13:00;27.70;;;22.13;;
17488;SDS011;8861;52.644;4.734;2023-05-07T00:15:28;24.53;;;20.33;;
17488;SDS011;8861;52.644;4.734;2023-05-07T00:17:55;30.83;;;23.43;;
17488;SDS011;8861;52.644;4.734;2023-05-07T00:20:23;35.57;;;26.67;;
17488;SDS011;8861;52.644;4.734;2023-05-07T00:22:50;37.03;;;27.50;;
17488;SDS011;8861;52.644;4.734;2023-05-07T00:25:17;38.43;;;28.47;;
17488;SDS011;8861;52.644;4.734;2023-05-07T00:27:45;39.47;;;29.37;;
17488;SDS011;8861;52.644;4.734;2023-05-07T00:30:12;32.50;;;24.90;;
17488;SDS011;8861;52.644;4.734;2023-05-07T00:32:41;30.63;;;23.77;;
17488;SDS011;8861;52.644;4.734;2023-05-07T00:35:10;29.23;;;22.93;;
17488;SDS011;8861;52.644;4.734;2023-05-07T00:37:37;31.70;;;24.40;;
17488;SDS011;8861;52.644;4.734;2023-05-07T00:40:05;27.80;;;23.00;;
17488;SDS011;8861;52.644;4.734;2023-05-07T00:42:33;25.53;;;20.87;;
17488;SDS011;8861;52.644;4.734;2023-05-07T00:45:00;24.90;;;20.20;;
17488;SDS011;8861;52.644;4.734;2023-05-07T00:47:27;24.67;;;20.13;;
17488;SDS011;8861;52.644;4.734;2023-05-07T00:49:56;22.57;;;19.30;;
17488;SDS011;8861;52.644;4.734;2023-05-07T00:52:23;26.20;;;20.60;;
17488;SDS011;8861;52.644;4.734;2023-05-07T00:54:52;27.93;;;21.63;;
17488;SDS011;8861;52.644;4.734;2023-05-07T00:57:20;25.10;;;20.30;;
17488;SDS011;8861;52.644;4.734;2023-05-07T00:59:48;25.00;;;19.77;;
17488;SDS011;8861;52.644;4.734;2023-05-07T01:02:15;24.03;;;19.20;;
17488;SDS011;8861;52.644;4.734;2023-05-07T01:04:42;28.73;;;21.80;;
17488;SDS011;8861;52.644;4.734;2023-05-07T01:07:10;27.50;;;21.97;;
17488;SDS011;8861;52.644;4.734;2023-05-07T01:09:38;29.37;;;23.33;;
17488;SDS011;8861;52.644;4.734;2023-05-07T01:12:06;32.70;;;25.57;;
17488;SDS011;8861;52.644;4.734;2023-05-07T01:14:34;31.27;;;23.83;;
17488;SDS011;8861;52.644;4.734;2023-05-07T01:17:01;37.67;;;28.07;;
17488;SDS011;8861;52.644;4.734;2023-05-07T01:19:28;32.20;;;24.80;;
17488;SDS011;8861;52.644;4.734;2023-05-07T01:21:58;31.87;;;25.67;;
17488;SDS011;8861;52.644;4.734;2023-05-07T01:24:31;38.57;;;29.23;;
17488;SDS011;8861;52.644;4.734;2023-05-07T01:26:58;40.93;;;30.30;;
17488;SDS011;8861;52.644;4.734;2023-05-07T01:29:26;45.17;;;33.90;;
17488;SDS011;8861;52.644;4.734;2023-05-07T01:31:53;42.93;;;31.83;;
17488;SDS011;8861;52.644;4.734;2023-05-07T01:34:22;51.10;;;35.73;;
17488;SDS011;8861;52.644;4.734;2023-05-07T01:36:51;61.67;;;41.40;;
17488;SDS011;8861;52.644;4.734;2023-05-07T01:39:20;51.90;;;37.13;;
17488;SDS011;8861;52.644;4.734;2023-05-07T01:41:49;49.27;;;34.90;;
17488;SDS011;8861;52.644;4.734;2023-05-07T01:44:16;42.37;;;31.40;;
17488;SDS011;8861;52.644;4.734;2023-05-07T01:46:45;49.43;;;36.13;;
17488;SDS011;8861;52.644;4.734;2023-05-07T01:49:12;54.23;;;38.20;;
17488;SDS011;8861;52.644;4.734;2023-05-07T01:51:39;51.47;;;36.03;;
17488;SDS011;8861;52.644;4.734;2023-05-07T01:54:06;50.23;;;35.43;;
17488;SDS011;8861;52.644;4.734;2023-05-07T01:56:33;51.97;;;36.47;;
17488;SDS011;8861;52.644;4.734;2023-05-07T01:59:02;50.23;;;35.03;;
17488;SDS011;8861;52.644;4.734;2023-05-07T02:01:28;53.70;;;36.47;;
17488;SDS011;8861;52.644;4.734;2023-05-07T02:03:56;55.33;;;38.63;;
17488;SDS011;8861;52.644;4.734;2023-05-07T02:06:22;58.03;;;39.17;;
17488;SDS011;8861;52.644;4.734;2023-05-07T02:08:49;55.63;;;38.83;;
17488;SDS011;8861;52.644;4.734;2023-05-07T02:11:16;46.53;;;33.97;;
17488;SDS011;8861;52.644;4.734;2023-05-07T02:13:43;47.83;;;34.13;;
17488;SDS011;8861;52.644;4.734;2023-05-07T02:16:11;44.87;;;33.03;;
17488;SDS011;8861;52.644;4.734;2023-05-07T02:18:39;37.13;;;27.77;;
17488;SDS011;8861;52.644;4.734;2023-05-07T02:21:06;41.63;;;30.60;;
17488;SDS011;8861;52.644;4.734;2023-05-07T02:23:33;49.07;;;34.53;;
17488;SDS011;8861;52.644;4.734;2023-05-07T02:26:00;41.20;;;30.43;;
17488;SDS011;8861;52.644;4.734;2023-05-07T02:28:27;43.50;;;31.27;;
17488;SDS011;8861;52.644;4.734;2023-05-07T02:30:53;43.17;;;30.87;;
17488;SDS011;8861;52.644;4.734;2023-05-07T02:33:22;37.60;;;28.07;;
17488;SDS011;8861;52.644;4.734;2023-05-07T02:35:49;39.03;;;27.93;;
17488;SDS011;8861;52.644;4.734;2023-05-07T02:38:17;39.17;;;28.17;;
17488;SDS011;8861;52.644;4.734;2023-05-07T02:40:44;41.30;;;30.60;;
17488;SDS011;8861;52.644;4.734;2023-05-07T02:43:10;39.17;;;28.20;;
17488;SDS011;8861;52.644;4.734;2023-05-07T02:45:37;42.40;;;31.07;;
17488;SDS011;8861;52.644;4.734;2023-05-07T02:48:04;50.90;;;34.93;;
17488;SDS011;8861;52.644;4.734;2023-05-07T02:50:33;45.30;;;33.27;;
17488;SDS011;8861;52.644;4.734;2023-05-07T02:53:00;49.40;;;34.47;;
17488;SDS011;8861;52.644;4.734;2023-05-07T02:55:27;50.33;;;34.33;;
17488;SDS011;8861;52.644;4.734;2023-05-07T02:57:54;51.63;;;36.47;;
17488;SDS011;8861;52.644;4.734;2023-05-07T03:00:21;44.37;;;32.43;;
17488;SDS011;8861;52.644;4.734;2023-05-07T03:02:49;51.27;;;36.93;;
17488;SDS011;8861;52.644;4.734;2023-05-07T03:05:15;50.93;;;35.17;;
17488;SDS011;8861;52.644;4.734;2023-05-07T03:07:44;49.23;;;34.97;;
17488;SDS011;8861;52.644;4.734;2023-05-07T03:10:12;51.00;;;35.93;;
17488;SDS011;8861;52.644;4.734;2023-05-07T03:12:39;56.13;;;39.07;;
17488;SDS011;8861;52.644;4.734;2023-05-07T03:15:07;61.40;;;41.67;;
17488;SDS011;8861;52.644;4.734;2023-05-07T03:17:35;53.93;;;37.67;;
17488;SDS011;8861;52.644;4.734;2023-05-07T03:20:02;43.90;;;32.60;;
17488;SDS011;8861;52.644;4.734;2023-05-07T03:22:30;38.33;;;28.83;;
17488;SDS011;8861;52.644;4.734;2023-05-07T03:24:58;34.37;;;27.20;;
17488;SDS011;8861;52.644;4.734;2023-05-07T03:27:25;34.23;;;27.47;;
17488;SDS011;8861;52.644;4.734;2023-05-07T03:29:52;32.70;;;25.37;;
17488;SDS011;8861;52.644;4.734;2023-05-07T03:32:19;27.23;;;21.73;;
17488;SDS011;8861;52.644;4.734;2023-05-07T03:34:46;26.03;;;21.30;;
17488;SDS011;8861;52.644;4.734;2023-05-07T03:37:13;25.60;;;20.80;;
17488;SDS011;8861;52.644;4.734;2023-05-07T03:39:40;22.23;;;18.17;;
17488;SDS011;8861;52.644;4.734;2023-05-07T03:42:08;23.43;;;19.37;;
17488;SDS011;8861;52.644;4.734;2023-05-07T03:44:35;22.37;;;19.00;;
17488;SDS011;8861;52.644;4.734;2023-05-07T03:47:02;19.60;;;16.43;;
17488;SDS011;8861;52.644;4.734;2023-05-07T03:49:29;18.87;;;15.93;;
17488;SDS011;8861;52.644;4.734;2023-05-07T03:51:56;19.03;;;16.40;;
17488;SDS011;8861;52.644;4.734;2023-05-07T03:54:23;22.07;;;18.23;;
17488;SDS011;8861;52.644;4.734;2023-05-07T03:56:50;19.57;;;16.63;;
17488;SDS011;8861;52.644;4.734;2023-05-07T03:59:18;18.90;;;16.33;;
17488;SDS011;8861;52.644;4.734;2023-05-07T04:01:45;16.53;;;14.70;;
17488;SDS011;8861;52.644;4.734;2023-05-07T04:04:12;17.10;;;14.60;;
17488;SDS011;8861;52.644;4.734;2023-05-07T04:06:39;16.17;;;14.07;;
17488;SDS011;8861;52.644;4.734;2023-05-07T04:09:06;17.10;;;15.13;;
17488;SDS011;8861;52.644;4.734;2023-05-07T04:11:33;17.57;;;14.70;;
17488;SDS011;8861;52.644;4.734;2023-05-07T04:14:01;16.00;;;14.30;;
17488;SDS011;8861;52.644;4.734;2023-05-07T04:16:29;14.70;;;13.17;;
17488;SDS011;8861;52.644;4.734;2023-05-07T04:18:56;13.50;;;12.00;;
17488;SDS011;8861;52.644;4.734;2023-05-07T04:21:23;12.73;;;11.40;;
17488;SDS011;8861;52.644;4.734;2023-05-07T04:23:51;12.53;;;11.00;;
17488;SDS011;8861;52.644;4.734;2023-05-07T04:26:18;12.67;;;11.37;;
17488;SDS011;8861;52.644;4.734;2023-05-07T04:28:46;12.47;;;11.17;;
17488;SDS011;8861;52.644;4.734;2023-05-07T04:31:13;11.13;;;10.03;;
17488;SDS011;8861;52.644;4.734;2023-05-07T04:33:41;12.00;;;10.83;;
17488;SDS011;8861;52.644;4.734;2023-05-07T04:36:08;11.23;;;10.03;;
17488;SDS011;8861;52.644;4.734;2023-05-07T04:38:35;10.90;;;9.83;;
17488;SDS011;8861;52.644;4.734;2023-05-07T04:41:03;11.27;;;10.17;;
17488;SDS011;8861;52.644;4.734;2023-05-07T04:43:33;9.93;;;8.93;;
17488;SDS011;8861;52.644;4.734;2023-05-07T04:46:00;9.53;;;8.63;;
17488;SDS011;8861;52.644;4.734;2023-05-07T04:48:27;9.97;;;8.97;;
17488;SDS011;8861;52.644;4.734;2023-05-07T04:50:55;9.53;;;8.53;;
17488;SDS011;8861;52.644;4.734;2023-05-07T04:53:22;9.07;;;8.17;;
17488;SDS011;8861;52.644;4.734;2023-05-07T04:55:54;8.40;;;7.60;;
17488;SDS011;8861;52.644;4.734;2023-05-07T04:58:21;8.67;;;7.83;;
17488;SDS011;8861;52.644;4.734;2023-05-07T05:00:49;8.50;;;7.70;;
17488;SDS011;8861;52.644;4.734;2023-05-07T05:03:16;9.00;;;8.10;;
17488;SDS011;8861;52.644;4.734;2023-05-07T05:05:43;9.40;;;8.50;;
17488;SDS011;8861;52.644;4.734;2023-05-07T05:08:11;9.10;;;8.20;;
17488;SDS011;8861;52.644;4.734;2023-05-07T05:10:38;9.27;;;8.37;;
17488;SDS011;8861;52.644;4.734;2023-05-07T05:13:06;9.27;;;8.37;;
17488;SDS011;8861;52.644;4.734;2023-05-07T05:15:34;9.90;;;8.90;;
17488;SDS011;8861;52.644;4.734;2023-05-07T05:18:01;9.60;;;8.70;;
17488;SDS011;8861;52.644;4.734;2023-05-07T05:20:28;10.73;;;9.63;;
17488;SDS011;8861;52.644;4.734;2023-05-07T05:22:54;10.07;;;9.07;;
17488;SDS011;8861;52.644;4.734;2023-05-07T05:25:23;10.50;;;9.40;;
17488;SDS011;8861;52.644;4.734;2023-05-07T05:27:50;9.03;;;8.13;;
17488;SDS011;8861;52.644;4.734;2023-05-07T05:30:17;8.73;;;7.93;;
17488;SDS011;8861;52.644;4.734;2023-05-07T05:32:43;9.20;;;8.30;;
17488;SDS011;8861;52.644;4.734;2023-05-07T05:35:10;9.30;;;8.40;;
17488;SDS011;8861;52.644;4.734;2023-05-07T05:37:37;9.13;;;8.23;;
17488;SDS011;8861;52.644;4.734;2023-05-07T05:40:05;9.53;;;8.63;;
17488;SDS011;8861;52.644;4.734;2023-05-07T05:42:33;9.60;;;8.60;;
17488;SDS011;8861;52.644;4.734;2023-05-07T05:45:00;8.83;;;8.03;;
17488;SDS011;8861;52.644;4.734;2023-05-07T05:47:27;9.17;;;8.27;;
17488;SDS011;8861;52.644;4.734;2023-05-07T05:49:55;10.10;;;9.17;;
17488;SDS011;8861;52.644;4.734;2023-05-07T05:52:22;12.57;;;11.30;;
17488;SDS011;8861;52.644;4.734;2023-05-07T05:54:50;9.73;;;8.77;;
17488;SDS011;8861;52.644;4.734;2023-05-07T05:57:17;9.03;;;8.13;;
17488;SDS011;8861;52.644;4.734;2023-05-07T05:59:45;9.17;;;8.23;;
17488;SDS011;8861;52.644;4.734;2023-05-07T06:02:13;9.47;;;8.57;;
17488;SDS011;8861;52.644;4.734;2023-05-07T06:04:39;8.90;;;8.10;;
17488;SDS011;8861;52.644;4.734;2023-05-07T06:07:07;8.73;;;7.87;;
17488;SDS011;8861;52.644;4.734;2023-05-07T06:09:34;9.37;;;8.47;;
17488;SDS011;8861;52.644;4.734;2023-05-07T06:12:01;10.57;;;9.57;;
17488;SDS011;8861;52.644;4.734;2023-05-07T06:14:28;10.57;;;9.57;;
17488;SDS011;8861;52.644;4.734;2023-05-07T06:16:56;10.43;;;9.43;;
17488;SDS011;8861;52.644;4.734;2023-05-07T06:19:23;10.80;;;9.70;;
17488;SDS011;8861;52.644;4.734;2023-05-07T06:21:51;10.77;;;9.70;;
17488;SDS011;8861;52.644;4.734;2023-05-07T06:24:18;11.73;;;10.53;;
17488;SDS011;8861;52.644;4.734;2023-05-07T06:26:45;11.73;;;10.63;;
17488;SDS011;8861;52.644;4.734;2023-05-07T06:29:12;13.20;;;11.90;;
17488;SDS011;8861;52.644;4.734;2023-05-07T06:31:39;16.90;;;15.20;;
17488;SDS011;8861;52.644;4.734;2023-05-07T06:34:08;16.80;;;15.10;;
17488;SDS011;8861;52.644;4.734;2023-05-07T06:36:39;21.27;;;18.43;;
17488;SDS011;8861;52.644;4.734;2023-05-07T06:39:06;21.30;;;19.10;;
17488;SDS011;8861;52.644;4.734;2023-05-07T06:41:33;18.97;;;17.07;;
17488;SDS011;8861;52.644;4.734;2023-05-07T06:44:00;22.20;;;19.83;;
17488;SDS011;8861;52.644;4.734;2023-05-07T06:46:27;30.17;;;26.03;;
17488;SDS011;8861;52.644;4.734;2023-05-07T06:48:54;28.47;;;24.37;;
17488;SDS011;8861;52.644;4.734;2023-05-07T06:51:23;28.03;;;23.47;;
17488;SDS011;8861;52.644;4.734;2023-05-07T06:53:50;24.53;;;21.93;;
17488;SDS011;8861;52.644;4.734;2023-05-07T06:56:17;26.67;;;23.67;;
17488;SDS011;8861;52.644;4.734;2023-05-07T06:58:44;24.17;;;21.57;;
17488;SDS011;8861;52.644;4.734;2023-05-07T07:01:11;23.37;;;20.87;;
17488;SDS011;8861;52.644;4.734;2023-05-07T07:03:38;25.13;;;22.43;;
17488;SDS011;8861;52.644;4.734;2023-05-07T07:06:05;25.43;;;22.73;;
17488;SDS011;8861;52.644;4.734;2023-05-07T07:08:34;25.17;;;22.17;;
17488;SDS011;8861;52.644;4.734;2023-05-07T07:11:00;24.70;;;22.10;;
17488;SDS011;8861;52.644;4.734;2023-05-07T07:13:27;26.70;;;23.53;;
17488;SDS011;8861;52.644;4.734;2023-05-07T07:15:54;27.20;;;23.63;;
17488;SDS011;8861;52.644;4.734;2023-05-07T07:18:21;32.70;;;27.20;;
17488;SDS011;8861;52.644;4.734;2023-05-07T07:20:48;30.07;;;26.30;;
17488;SDS011;8861;52.644;4.734;2023-05-07T07:23:15;27.53;;;24.17;;
17488;SDS011;8861;52.644;4.734;2023-05-07T07:25:43;25.27;;;22.57;;
17488;SDS011;8861;52.644;4.734;2023-05-07T07:28:10;24.77;;;22.07;;
17488;SDS011;8861;52.644;4.734;2023-05-07T07:30:37;24.37;;;21.77;;
17488;SDS011;8861;52.644;4.734;2023-05-07T07:33:05;28.47;;;23.37;;
17488;SDS011;8861;52.644;4.734;2023-05-07T07:35:32;25.80;;;23.00;;
17488;SDS011;8861;52.644;4.734;2023-05-07T07:37:59;24.27;;;21.47;;
17488;SDS011;8861;52.644;4.734;2023-05-07T07:40:26;26.93;;;24.03;;
17488;SDS011;8861;52.644;4.734;2023-05-07T07:42:56;24.70;;;22.00;;
17488;SDS011;8861;52.644;4.734;2023-05-07T07:45:23;22.40;;;20.00;;
17488;SDS011;8861;52.644;4.734;2023-05-07T07:47:50;24.10;;;20.97;;
17488;SDS011;8861;52.644;4.734;2023-05-07T07:50:17;25.17;;;22.20;;
17488;SDS011;8861;52.644;4.734;2023-05-07T07:52:44;26.53;;;22.00;;
17488;SDS011;8861;52.644;4.734;2023-05-07T07:55:11;24.17;;;21.57;;
17488;SDS011;8861;52.644;4.734;2023-05-07T07:57:38;25.97;;;22.43;;
17488;SDS011;8861;52.644;4.734;2023-05-07T08:00:07;23.83;;;21.33;;
17488;SDS011;8861;52.644;4.734;2023-05-07T08:02:35;24.57;;;21.83;;
17488;SDS011;8861;52.644;4.734;2023-05-07T08:05:02;22.00;;;19.70;;
17488;SDS011;8861;52.644;4.734;2023-05-07T08:07:29;20.97;;;18.77;;
17488;SDS011;8861;52.644;4.734;2023-05-07T08:09:56;21.00;;;18.80;;
17488;SDS011;8861;52.644;4.734;2023-05-07T08:12:23;21.77;;;19.50;;
17488;SDS011;8861;52.644;4.734;2023-05-07T08:14:50;20.10;;;18.10;;
17488;SDS011;8861;52.644;4.734;2023-05-07T08:17:18;20.10;;;18.00;;
17488;SDS011;8861;52.644;4.734;2023-05-07T08:19:47;21.70;;;19.40;;
17488;SDS011;8861;52.644;4.734;2023-05-07T08:22:14;24.37;;;20.97;;
17488;SDS011;8861;52.644;4.734;2023-05-07T08:24:42;21.53;;;19.20;;
17488;SDS011;8861;52.644;4.734;2023-05-07T08:27:09;21.37;;;19.07;;
17488;SDS011;8861;52.644;4.734;2023-05-07T08:29:36;22.60;;;20.20;;
17488;SDS011;8861;52.644;4.734;2023-05-07T08:32:03;21.80;;;19.50;;
17488;SDS011;8861;52.644;4.734;2023-05-07T08:34:32;23.27;;;20.77;;
17488;SDS011;8861;52.644;4.734;2023-05-07T08:36:59;24.10;;;21.37;;
17488;SDS011;8861;52.644;4.734;2023-05-07T08:39:26;23.70;;;21.10;;
17488;SDS011;8861;52.644;4.734;2023-05-07T08:41:53;24.53;;;21.83;;
17488;SDS011;8861;52.644;4.734;2023-05-07T08:44:22;21.67;;;19.37;;
17488;SDS011;8861;52.644;4.734;2023-05-07T08:46:50;19.10;;;17.10;;
17488;SDS011;8861;52.644;4.734;2023-05-07T08:49:20;18.40;;;16.40;;
17488;SDS011;8861;52.644;4.734;2023-05-07T08:51:48;22.30;;;19.90;;
17488;SDS011;8861;52.644;4.734;2023-05-07T08:54:16;22.93;;;20.53;;
17488;SDS011;8861;52.644;4.734;2023-05-07T08:56:44;20.40;;;18.20;;
17488;SDS011;8861;52.644;4.734;2023-05-07T08:59:11;17.80;;;16.00;;
17488;SDS011;8861;52.644;4.734;2023-05-07T09:01:38;16.83;;;15.03;;
17488;SDS011;8861;52.644;4.734;2023-05-07T09:04:05;17.03;;;15.33;;
17488;SDS011;8861;52.644;4.734;2023-05-07T09:06:32;22.93;;;20.27;;
17488;SDS011;8861;52.644;4.734;2023-05-07T09:09:01;19.03;;;17.03;;
17488;SDS011;8861;52.644;4.734;2023-05-07T09:11:30;18.17;;;15.00;;
17488;SDS011;8861;52.644;4.734;2023-05-07T09:13:57;17.60;;;15.80;;
17488;SDS011;8861;52.644;4.734;2023-05-07T09:16:26;18.10;;;16.30;;
17488;SDS011;8861;52.644;4.734;2023-05-07T09:18:57;14.53;;;13.13;;
17488;SDS011;8861;52.644;4.734;2023-05-07T09:21:25;13.37;;;12.03;;
17488;SDS011;8861;52.644;4.734;2023-05-07T09:23:52;14.23;;;12.70;;
17488;SDS011;8861;52.644;4.734;2023-05-07T09:26:22;13.87;;;12.47;;
17488;SDS011;8861;52.644;4.734;2023-05-07T09:28:49;11.20;;;10.17;;
17488;SDS011;8861;52.644;4.734;2023-05-07T09:31:16;13.03;;;11.73;;
17488;SDS011;8861;52.644;4.734;2023-05-07T09:33:43;16.13;;;14.43;;
17488;SDS011;8861;52.644;4.734;2023-05-07T09:36:10;16.63;;;14.87;;
17488;SDS011;8861;52.644;4.734;2023-05-07T09:38:38;17.67;;;15.27;;
17488;SDS011;8861;52.644;4.734;2023-05-07T09:41:05;14.97;;;13.47;;
17488;SDS011;8861;52.644;4.734;2023-05-07T09:43:36;13.07;;;11.77;;
17488;SDS011;8861;52.644;4.734;2023-05-07T09:46:05;11.60;;;10.40;;
17488;SDS011;8861;52.644;4.734;2023-05-07T09:48:35;12.20;;;11.00;;
17488;SDS011;8861;52.644;4.734;2023-05-07T09:51:06;16.57;;;14.97;;
17488;SDS011;8861;52.644;4.734;2023-05-07T09:53:45;17.40;;;15.47;;
17488;SDS011;8861;52.644;4.734;2023-05-07T09:56:13;18.13;;;14.43;;
17488;SDS011;8861;52.644;4.734;2023-05-07T09:58:42;16.83;;;15.13;;
17488;SDS011;8861;52.644;4.734;2023-05-07T10:01:10;17.57;;;15.77;;
17488;SDS011;8861;52.644;4.734;2023-05-07T10:03:39;15.47;;;13.83;;
17488;SDS011;8861;52.644;4.734;2023-05-07T10:06:08;21.10;;;17.93;;
17488;SDS011;8861;52.644;4.734;2023-05-07T10:08:36;18.40;;;16.40;;
17488;SDS011;8861;52.644;4.734;2023-05-07T10:11:03;20.47;;;18.37;;
17488;SDS011;8861;52.644;4.734;2023-05-07T10:13:31;19.77;;;17.60;;
17488;SDS011;8861;52.644;4.734;2023-05-07T10:16:01;20.53;;;17.93;;
17488;SDS011;8861;52.644;4.734;2023-05-07T10:18:29;18.27;;;16.37;;
17488;SDS011;8861;52.644;4.734;2023-05-07T10:20:59;19.77;;;17.77;;
17488;SDS011;8861;52.644;4.734;2023-05-07T10:23:30;18.47;;;16.23;;
17488;SDS011;8861;52.644;4.734;2023-05-07T10:25:59;21.60;;;19.30;;
17488;SDS011;8861;52.644;4.734;2023-05-07T10:28:28;19.27;;;17.17;;
17488;SDS011;8861;52.644;4.734;2023-05-07T10:31:03;17.77;;;16.00;;
17488;SDS011;8861;52.644;4.734;2023-05-07T10:33:41;21.93;;;19.63;;
17488;SDS011;8861;52.644;4.734;2023-05-07T10:36:10;19.43;;;17.40;;
17488;SDS011;8861;52.644;4.734;2023-05-07T10:38:37;17.50;;;15.60;;
17488;SDS011;8861;52.644;4.734;2023-05-07T10:41:05;20.90;;;18.67;;
17488;SDS011;8861;52.644;4.734;2023-05-07T10:43:39;19.33;;;17.33;;
17488;SDS011;8861;52.644;4.734;2023-05-07T10:46:13;18.23;;;16.33;;
17488;SDS011;8861;52.644;4.734;2023-05-07T10:51:35;20.83;;;18.63;;
17488;SDS011;8861;52.644;4.734;2023-05-07T10:56:47;21.50;;;19.20;;
17488;SDS011;8861;52.644;4.734;2023-05-07T11:02:14;18.57;;;16.70;;
17488;SDS011;8861;52.644;4.734;2023-05-07T11:04:41;19.17;;;17.17;;
17488;SDS011;8861;52.644;4.734;2023-05-07T11:09:54;18.03;;;16.13;;
17488;SDS011;8861;52.644;4.734;2023-05-07T11:15:14;17.97;;;16.07;;
17488;SDS011;8861;52.644;4.734;2023-05-07T11:18:00;22.47;;;20.07;;
17488;SDS011;8861;52.644;4.734;2023-05-07T11:26:25;17.57;;;15.77;;
17488;SDS011;8861;52.644;4.734;2023-05-07T11:28:53;17.33;;;15.53;;
17488;SDS011;8861;52.644;4.734;2023-05-07T11:31:21;17.27;;;15.53;;
17488;SDS011;8861;52.644;4.734;2023-05-07T11:33:53;18.13;;;15.63;;
17488;SDS011;8861;52.644;4.734;2023-05-07T11:36:21;20.87;;;18.63;;
17488;SDS011;8861;52.644;4.734;2023-05-07T11:38:50;19.50;;;16.50;;
17488;SDS011;8861;52.644;4.734;2023-05-07T11:41:17;18.40;;;16.50;;
17488;SDS011;8861;52.644;4.734;2023-05-07T11:43:56;20.43;;;18.33;;
17488;SDS011;8861;52.644;4.734;2023-05-07T11:46:24;19.47;;;17.47;;
17488;SDS011;8861;52.644;4.734;2023-05-07T11:48:54;18.57;;;16.57;;
17488;SDS011;8861;52.644;4.734;2023-05-07T11:51:21;18.27;;;16.37;;
17488;SDS011;8861;52.644;4.734;2023-05-07T11:53:49;19.47;;;16.90;;
17488;SDS011;8861;52.644;4.734;2023-05-07T11:56:17;18.63;;;16.63;;
17488;SDS011;8861;52.644;4.734;2023-05-07T11:58:45;17.20;;;15.43;;
17488;SDS011;8861;52.644;4.734;2023-05-07T12:01:13;19.23;;;16.90;;
17488;SDS011;8861;52.644;4.734;2023-05-07T12:03:42;18.97;;;16.50;;
17488;SDS011;8861;52.644;4.734;2023-05-07T12:06:12;18.50;;;16.60;;
17488;SDS011;8861;52.644;4.734;2023-05-07T12:08:40;16.87;;;15.07;;
17488;SDS011;8861;52.644;4.734;2023-05-07T12:11:08;18.10;;;16.30;;
17488;SDS011;8861;52.644;4.734;2023-05-07T12:13:36;21.37;;;18.50;;
17488;SDS011;8861;52.644;4.734;2023-05-07T12:16:05;21.97;;;19.57;;
17488;SDS011;8861;52.644;4.734;2023-05-07T12:18:33;23.93;;;21.07;;
17488;SDS011;8861;52.644;4.734;2023-05-07T12:21:01;29.03;;;24.40;;
17488;SDS011;8861;52.644;4.734;2023-05-07T12:23:29;30.47;;;24.30;;
17488;SDS011;8861;52.644;4.734;2023-05-07T12:25:57;32.27;;;25.77;;
17488;SDS011;8861;52.644;4.734;2023-05-07T12:28:25;27.53;;;22.90;;
17488;SDS011;8861;52.644;4.734;2023-05-07T12:30:52;30.70;;;22.93;;
17488;SDS011;8861;52.644;4.734;2023-05-07T12:33:23;23.30;;;19.57;;
17488;SDS011;8861;52.644;4.734;2023-05-07T12:35:53;20.67;;;18.03;;
17488;SDS011;8861;52.644;4.734;2023-05-07T12:38:21;22.10;;;18.50;;
17488;SDS011;8861;52.644;4.734;2023-05-07T12:40:50;21.17;;;17.93;;
17488;SDS011;8861;52.644;4.734;2023-05-07T12:43:20;23.50;;;20.00;;
17488;SDS011;8861;52.644;4.734;2023-05-07T12:45:48;24.10;;;20.07;;
17488;SDS011;8861;52.644;4.734;2023-05-07T12:48:16;20.67;;;17.83;;
17488;SDS011;8861;52.644;4.734;2023-05-07T12:50:43;18.30;;;16.07;;
17488;SDS011;8861;52.644;4.734;2023-05-07T12:53:11;17.47;;;15.47;;
17488;SDS011;8861;52.644;4.734;2023-05-07T12:55:42;23.43;;;20.00;;
17488;SDS011;8861;52.644;4.734;2023-05-07T12:58:15;21.03;;;18.33;;
17488;SDS011;8861;52.644;4.734;2023-05-07T13:00:43;20.30;;;17.00;;
17488;SDS011;8861;52.644;4.734;2023-05-07T13:03:15;19.83;;;17.17;;
17488;SDS011;8861;52.644;4.734;2023-05-07T13:05:47;17.93;;;15.63;;
17488;SDS011;8861;52.644;4.734;2023-05-07T13:08:23;18.23;;;16.30;;
17488;SDS011;8861;52.644;4.734;2023-05-07T13:10:53;18.20;;;15.57;;
17488;SDS011;8861;52.644;4.734;2023-05-07T13:13:24;20.27;;;17.43;;
17488;SDS011;8861;52.644;4.734;2023-05-07T13:15:51;20.07;;;17.87;;
17488;SDS011;8861;52.644;4.734;2023-05-07T13:18:18;20.53;;;17.90;;
17488;SDS011;8861;52.644;4.734;2023-05-07T13:20:45;18.43;;;16.43;;
17488;SDS011;8861;52.644;4.734;2023-05-07T13:23:12;18.40;;;15.83;;
17488;SDS011;8861;52.644;4.734;2023-05-07T13:25:39;16.00;;;14.40;;
17488;SDS011;8861;52.644;4.734;2023-05-07T13:28:05;17.63;;;15.67;;
17488;SDS011;8861;52.644;4.734;2023-05-07T13:30:34;18.97;;;16.67;;
17488;SDS011;8861;52.644;4.734;2023-05-07T13:33:01;19.00;;;16.83;;
17488;SDS011;8861;52.644;4.734;2023-05-07T13:35:28;20.50;;;18.03;;
17488;SDS011;8861;52.644;4.734;2023-05-07T13:37:55;21.90;;;18.73;;
17488;SDS011;8861;52.644;4.734;2023-05-07T13:40:22;23.97;;;20.20;;
17488;SDS011;8861;52.644;4.734;2023-05-07T13:42:49;25.20;;;21.00;;
17488;SDS011;8861;52.644;4.734;2023-05-07T13:45:16;24.87;;;21.00;;
17488;SDS011;8861;52.644;4.734;2023-05-07T13:47:45;21.43;;;19.03;;
17488;SDS011;8861;52.644;4.734;2023-05-07T13:50:14;21.53;;;19.03;;
17488;SDS011;8861;52.644;4.734;2023-05-07T13:52:42;20.93;;;18.30;;
17488;SDS011;8861;52.644;4.734;2023-05-07T13:55:15;19.63;;;17.20;;
17488;SDS011;8861;52.644;4.734;2023-05-07T13:57:42;19.50;;;16.83;;
17488;SDS011;8861;52.644;4.734;2023-05-07T14:00:10;19.83;;;17.07;;
17488;SDS011;8861;52.644;4.734;2023-05-07T14:02:37;20.87;;;18.37;;
17488;SDS011;8861;52.644;4.734;2023-05-07T14:05:06;22.67;;;18.27;;
17488;SDS011;8861;52.644;4.734;2023-05-07T14:07:34;23.70;;;19.87;;
17488;SDS011;8861;52.644;4.734;2023-05-07T14:10:01;21.20;;;18.23;;
17488;SDS011;8861;52.644;4.734;2023-05-07T14:12:29;20.73;;;18.13;;
17488;SDS011;8861;52.644;4.734;2023-05-07T14:14:56;19.97;;;17.30;;
17488;SDS011;8861;52.644;4.734;2023-05-07T14:17:23;19.63;;;16.83;;
17488;SDS011;8861;52.644;4.734;2023-05-07T14:19:52;20.13;;;17.00;;
17488;SDS011;8861;52.644;4.734;2023-05-07T14:22:21;20.03;;;16.33;;
17488;SDS011;8861;52.644;4.734;2023-05-07T14:24:49;21.83;;;18.03;;
17488;SDS011;8861;52.644;4.734;2023-05-07T14:27:16;22.97;;;19.10;;
17488;SDS011;8861;52.644;4.734;2023-05-07T14:29:43;24.07;;;18.93;;
17488;SDS011;8861;52.644;4.734;2023-05-07T14:32:10;20.67;;;17.27;;
17488;SDS011;8861;52.644;4.734;2023-05-07T14:34:37;21.90;;;18.03;;
17488;SDS011;8861;52.644;4.734;2023-05-07T14:37:04;21.53;;;18.57;;
17488;SDS011;8861;52.644;4.734;2023-05-07T14:39:32;20.93;;;18.07;;
17488;SDS011;8861;52.644;4.734;2023-05-07T14:41:59;21.33;;;17.97;;
17488;SDS011;8861;52.644;4.734;2023-05-07T14:44:26;21.57;;;18.33;;
17488;SDS011;8861;52.644;4.734;2023-05-07T14:46:53;18.33;;;15.73;;
17488;SDS011;8861;52.644;4.734;2023-05-07T14:49:20;17.63;;;15.50;;
17488;SDS011;8861;52.644;4.734;2023-05-07T14:51:47;17.90;;;15.63;;
17488;SDS011;8861;52.644;4.734;2023-05-07T14:54:14;15.33;;;13.70;;
17488;SDS011;8861;52.644;4.734;2023-05-07T14:56:43;15.13;;;13.27;;
17488;SDS011;8861;52.644;4.734;2023-05-07T14:59:10;13.40;;;12.00;;
17488;SDS011;8861;52.644;4.734;2023-05-07T15:01:37;15.93;;;14.23;;